sensor_id;sensor_type;location;lat;lon;timestamp;temperature;humidity
2603;DHT22;1311;47.966;7.958;2023-02-05T00:00:21;0.70;99.90
2603;DHT22;1311;47.966;7.958;2023-02-05T00:02:48;0.70;99.90
2603;DHT22;1311;47.966;7.958;2023-02-05T00:05:15;0.70;99.90
2603;DHT22;1311;47.966;7.958;2023-02-05T00:07:41;0.70;99.90
2603;DHT22;1311;47.966;7.958;2023-02-05T00:10:09;0.70;99.90
2603;DHT22;1311;47.966;7.958;2023-02-05T00:12:35;0.60;99.90
2603;DHT22;1311;47.966;7.958;2023-02-05T00:15:03;0.60;99.90
2603;DHT22;1311;47.966;7.958;2023-02-05T00:17:33;0.60;99.90
2603;DHT22;1311;47.966;7.958;2023-02-05T00:20:00;0.50;99.90
2603;DHT22;1311;47.966;7.958;2023-02-05T00:22:29;0.50;99.90
2603;DHT22;1311;47.966;7.958;2023-02-05T00:24:56;0.50;99.90
2603;DHT22;1311;47.966;7.958;2023-02-05T00:27:23;0.50;99.90
2603;DHT22;1311;47.966;7.958;2023-02-05T00:29:49;0.50;99.90
2603;DHT22;1311;47.966;7.958;2023-02-05T00:32:16;0.50;99.90
2603;DHT22;1311;47.966;7.958;2023-02-05T00:34:44;0.40;99.90
2603;DHT22;1311;47.966;7.958;2023-02-05T00:37:11;0.40;99.90
2603;DHT22;1311;47.966;7.958;2023-02-05T00:39:38;0.40;99.90
2603;DHT22;1311;47.966;7.958;2023-02-05T00:42:04;0.40;99.90
2603;DHT22;1311;47.966;7.958;2023-02-05T00:44:31;0.40;99.90
2603;DHT22;1311;47.966;7.958;2023-02-05T00:46:58;0.40;99.90
2603;DHT22;1311;47.966;7.958;2023-02-05T00:49:25;0.30;99.90
2603;DHT22;1311;47.966;7.958;2023-02-05T00:51:53;0.30;99.90
2603;DHT22;1311;47.966;7.958;2023-02-05T00:54:20;0.20;99.90
2603;DHT22;1311;47.966;7.958;2023-02-05T00:56:47;0.20;99.90
2603;DHT22;1311;47.966;7.958;2023-02-05T00:59:13;0.20;99.90
2603;DHT22;1311;47.966;7.958;2023-02-05T01:01:40;0.20;99.90
2603;DHT22;1311;47.966;7.958;2023-02-05T01:04:07;0.10;99.90
2603;DHT22;1311;47.966;7.958;2023-02-05T01:06:34;0.10;99.90
2603;DHT22;1311;47.966;7.958;2023-02-05T01:09:02;0.10;99.90
2603;DHT22;1311;47.966;7.958;2023-02-05T01:11:29;0.10;99.90
2603;DHT22;1311;47.966;7.958;2023-02-05T01:13:55;0.10;99.90
2603;DHT22;1311;47.966;7.958;2023-02-05T01:16:22;0.10;99.90
2603;DHT22;1311;47.966;7.958;2023-02-05T01:18:49;0.00;99.90
2603;DHT22;1311;47.966;7.958;2023-02-05T01:21:17;0.10;99.90
2603;DHT22;1311;47.966;7.958;2023-02-05T01:23:44;0.10;99.90
2603;DHT22;1311;47.966;7.958;2023-02-05T01:26:12;0.10;99.90
2603;DHT22;1311;47.966;7.958;2023-02-05T01:28:38;0.10;99.90
2603;DHT22;1311;47.966;7.958;2023-02-05T01:31:05;0.10;99.90
2603;DHT22;1311;47.966;7.958;2023-02-05T01:33:32;0.10;99.90
2603;DHT22;1311;47.966;7.958;2023-02-05T01:35:59;0.10;99.90
2603;DHT22;1311;47.966;7.958;2023-02-05T01:38:25;0.10;99.90
2603;DHT22;1311;47.966;7.958;2023-02-05T01:40:52;0.00;99.90
2603;DHT22;1311;47.966;7.958;2023-02-05T01:43:20;-0.10;99.90
2603;DHT22;1311;47.966;7.958;2023-02-05T01:46:21;-0.10;99.90
2603;DHT22;1311;47.966;7.958;2023-02-05T01:48:52;-0.20;99.90
2603;DHT22;1311;47.966;7.958;2023-02-05T01:51:20;-0.20;99.90
2603;DHT22;1311;47.966;7.958;2023-02-05T01:53:48;-0.30;99.90
2603;DHT22;1311;47.966;7.958;2023-02-05T01:56:17;-0.30;99.90
2603;DHT22;1311;47.966;7.958;2023-02-05T01:58:50;-0.30;99.90
2603;DHT22;1311;47.966;7.958;2023-02-05T02:01:18;-0.30;99.90
2603;DHT22;1311;47.966;7.958;2023-02-05T02:03:45;-0.30;99.90
2603;DHT22;1311;47.966;7.958;2023-02-05T02:06:13;-0.30;99.90
2603;DHT22;1311;47.966;7.958;2023-02-05T02:08:40;-0.30;99.90
2603;DHT22;1311;47.966;7.958;2023-02-05T02:11:08;-0.40;99.90
2603;DHT22;1311;47.966;7.958;2023-02-05T02:13:36;-0.40;99.90
2603;DHT22;1311;47.966;7.958;2023-02-05T02:16:06;-0.50;99.90
2603;DHT22;1311;47.966;7.958;2023-02-05T02:18:35;-0.50;99.90
2603;DHT22;1311;47.966;7.958;2023-02-05T02:21:24;-0.50;99.90
2603;DHT22;1311;47.966;7.958;2023-02-05T02:24:11;-0.50;99.90
2603;DHT22;1311;47.966;7.958;2023-02-05T02:29:55;-0.40;99.90
2603;DHT22;1311;47.966;7.958;2023-02-05T02:32:27;-0.40;99.90
2603;DHT22;1311;47.966;7.958;2023-02-05T02:35:01;-0.40;99.90
2603;DHT22;1311;47.966;7.958;2023-02-05T02:37:33;-0.40;99.90
2603;DHT22;1311;47.966;7.958;2023-02-05T02:40:07;-0.50;99.90
2603;DHT22;1311;47.966;7.958;2023-02-05T02:42:40;-0.60;99.90
2603;DHT22;1311;47.966;7.958;2023-02-05T02:45:09;-0.60;99.90
2603;DHT22;1311;47.966;7.958;2023-02-05T02:47:44;-0.70;99.90
2603;DHT22;1311;47.966;7.958;2023-02-05T02:50:14;-0.80;99.90
2603;DHT22;1311;47.966;7.958;2023-02-05T02:52:45;-0.80;99.90
2603;DHT22;1311;47.966;7.958;2023-02-05T02:55:13;-0.60;99.90
2603;DHT22;1311;47.966;7.958;2023-02-05T02:57:43;-0.60;99.90
2603;DHT22;1311;47.966;7.958;2023-02-05T03:00:16;-0.60;99.90
2603;DHT22;1311;47.966;7.958;2023-02-05T03:02:45;-0.70;99.90
2603;DHT22;1311;47.966;7.958;2023-02-05T03:05:15;-0.70;99.90
2603;DHT22;1311;47.966;7.958;2023-02-05T03:07:47;-0.70;99.90
2603;DHT22;1311;47.966;7.958;2023-02-05T03:10:21;-0.70;99.90
2603;DHT22;1311;47.966;7.958;2023-02-05T03:12:49;-0.90;99.90
2603;DHT22;1311;47.966;7.958;2023-02-05T03:15:17;-0.80;99.90
2603;DHT22;1311;47.966;7.958;2023-02-05T03:17:44;-0.90;99.90
2603;DHT22;1311;47.966;7.958;2023-02-05T03:20:15;-0.90;99.90
2603;DHT22;1311;47.966;7.958;2023-02-05T03:22:43;-0.90;99.90
2603;DHT22;1311;47.966;7.958;2023-02-05T03:25:10;-1.00;99.90
2603;DHT22;1311;47.966;7.958;2023-02-05T03:27:37;-1.00;99.90
2603;DHT22;1311;47.966;7.958;2023-02-05T03:30:06;-0.90;99.90
2603;DHT22;1311;47.966;7.958;2023-02-05T03:32:52;-1.00;99.90
2603;DHT22;1311;47.966;7.958;2023-02-05T03:35:30;-1.00;99.90
2603;DHT22;1311;47.966;7.958;2023-02-05T03:38:15;-0.90;99.90
2603;DHT22;1311;47.966;7.958;2023-02-05T03:40:50;-0.90;99.90
2603;DHT22;1311;47.966;7.958;2023-02-05T03:43:29;-0.90;99.90
2603;DHT22;1311;47.966;7.958;2023-02-05T03:46:01;-0.90;99.90
2603;DHT22;1311;47.966;7.958;2023-02-05T03:48:44;-0.90;99.90
2603;DHT22;1311;47.966;7.958;2023-02-05T03:51:25;-1.00;99.90
2603;DHT22;1311;47.966;7.958;2023-02-05T03:54:01;-1.00;99.90
2603;DHT22;1311;47.966;7.958;2023-02-05T03:56:36;-1.00;99.90
2603;DHT22;1311;47.966;7.958;2023-02-05T03:59:05;-1.10;99.90
2603;DHT22;1311;47.966;7.958;2023-02-05T04:01:32;-1.10;99.90
2603;DHT22;1311;47.966;7.958;2023-02-05T04:04:01;-1.10;99.90
2603;DHT22;1311;47.966;7.958;2023-02-05T04:06:28;-1.20;99.90
2603;DHT22;1311;47.966;7.958;2023-02-05T04:08:55;-1.20;99.90
2603;DHT22;1311;47.966;7.958;2023-02-05T04:11:22;-1.30;99.90
2603;DHT22;1311;47.966;7.958;2023-02-05T04:13:49;-1.30;99.90
2603;DHT22;1311;47.966;7.958;2023-02-05T04:16:15;-1.30;99.90
2603;DHT22;1311;47.966;7.958;2023-02-05T04:18:42;-1.30;99.90
2603;DHT22;1311;47.966;7.958;2023-02-05T04:21:10;-1.20;99.90
2603;DHT22;1311;47.966;7.958;2023-02-05T04:23:37;-1.20;99.90
2603;DHT22;1311;47.966;7.958;2023-02-05T04:26:04;-1.20;99.90
2603;DHT22;1311;47.966;7.958;2023-02-05T04:28:31;-1.10;99.90
2603;DHT22;1311;47.966;7.958;2023-02-05T04:30:58;-1.10;99.90
2603;DHT22;1311;47.966;7.958;2023-02-05T04:33:24;-1.10;99.90
2603;DHT22;1311;47.966;7.958;2023-02-05T04:35:56;-1.20;99.90
2603;DHT22;1311;47.966;7.958;2023-02-05T04:38:24;-1.30;99.90
2603;DHT22;1311;47.966;7.958;2023-02-05T04:40:51;-1.40;99.90
2603;DHT22;1311;47.966;7.958;2023-02-05T04:43:18;-1.40;99.90
2603;DHT22;1311;47.966;7.958;2023-02-05T04:45:44;-1.40;99.90
2603;DHT22;1311;47.966;7.958;2023-02-05T04:48:11;-1.20;99.90
2603;DHT22;1311;47.966;7.958;2023-02-05T04:50:38;-1.10;99.90
2603;DHT22;1311;47.966;7.958;2023-02-05T04:53:05;-1.20;99.90
2603;DHT22;1311;47.966;7.958;2023-02-05T04:55:33;-1.20;99.90
2603;DHT22;1311;47.966;7.958;2023-02-05T04:58:00;-1.20;99.90
2603;DHT22;1311;47.966;7.958;2023-02-05T05:00:27;-1.20;99.90
2603;DHT22;1311;47.966;7.958;2023-02-05T05:02:54;-1.20;99.90
2603;DHT22;1311;47.966;7.958;2023-02-05T05:05:21;-1.20;99.90
2603;DHT22;1311;47.966;7.958;2023-02-05T05:07:47;-1.10;99.90
2603;DHT22;1311;47.966;7.958;2023-02-05T05:10:14;-1.00;99.90
2603;DHT22;1311;47.966;7.958;2023-02-05T05:12:42;-0.90;99.90
2603;DHT22;1311;47.966;7.958;2023-02-05T05:15:09;-0.80;99.90
2603;DHT22;1311;47.966;7.958;2023-02-05T05:17:36;-0.70;99.90
2603;DHT22;1311;47.966;7.958;2023-02-05T05:20:03;-0.60;99.90
2603;DHT22;1311;47.966;7.958;2023-02-05T05:22:30;-0.60;99.90
2603;DHT22;1311;47.966;7.958;2023-02-05T05:24:57;-0.50;99.90
2603;DHT22;1311;47.966;7.958;2023-02-05T05:27:23;-0.30;99.90
2603;DHT22;1311;47.966;7.958;2023-02-05T05:29:51;-0.30;99.90
2603;DHT22;1311;47.966;7.958;2023-02-05T05:32:18;-0.20;99.90
2603;DHT22;1311;47.966;7.958;2023-02-05T05:34:45;-0.10;99.90
2603;DHT22;1311;47.966;7.958;2023-02-05T05:37:12;0.00;99.90
2603;DHT22;1311;47.966;7.958;2023-02-05T05:39:38;0.10;99.90
2603;DHT22;1311;47.966;7.958;2023-02-05T05:42:22;0.20;99.90
2603;DHT22;1311;47.966;7.958;2023-02-05T05:45:09;0.30;99.90
2603;DHT22;1311;47.966;7.958;2023-02-05T05:47:36;0.30;99.90
2603;DHT22;1311;47.966;7.958;2023-02-05T05:50:03;0.50;99.90
2603;DHT22;1311;47.966;7.958;2023-02-05T05:52:29;0.50;99.90
2603;DHT22;1311;47.966;7.958;2023-02-05T05:54:56;0.60;99.90
2603;DHT22;1311;47.966;7.958;2023-02-05T05:57:23;0.60;99.90
2603;DHT22;1311;47.966;7.958;2023-02-05T05:59:50;0.60;99.90
2603;DHT22;1311;47.966;7.958;2023-02-05T06:02:18;0.60;99.90
2603;DHT22;1311;47.966;7.958;2023-02-05T06:04:45;0.60;99.90
2603;DHT22;1311;47.966;7.958;2023-02-05T06:07:12;0.70;99.90
2603;DHT22;1311;47.966;7.958;2023-02-05T06:09:38;0.70;99.90
2603;DHT22;1311;47.966;7.958;2023-02-05T06:12:05;0.70;99.90
2603;DHT22;1311;47.966;7.958;2023-02-05T06:14:32;0.80;99.90
2603;DHT22;1311;47.966;7.958;2023-02-05T06:16:59;0.90;99.90
2603;DHT22;1311;47.966;7.958;2023-02-05T06:19:27;1.00;99.90
2603;DHT22;1311;47.966;7.958;2023-02-05T06:21:54;1.00;99.90
2603;DHT22;1311;47.966;7.958;2023-02-05T06:24:21;1.00;99.90
2603;DHT22;1311;47.966;7.958;2023-02-05T06:26:47;1.10;99.90
2603;DHT22;1311;47.966;7.958;2023-02-05T06:29:14;1.10;99.90
2603;DHT22;1311;47.966;7.958;2023-02-05T06:31:41;1.10;99.90
2603;DHT22;1311;47.966;7.958;2023-02-05T06:34:08;1.10;99.90
2603;DHT22;1311;47.966;7.958;2023-02-05T06:36:36;1.10;99.90
2603;DHT22;1311;47.966;7.958;2023-02-05T06:39:02;1.10;99.90
2603;DHT22;1311;47.966;7.958;2023-02-05T06:41:29;1.10;99.90
2603;DHT22;1311;47.966;7.958;2023-02-05T06:43:56;1.10;99.90
2603;DHT22;1311;47.966;7.958;2023-02-05T06:46:23;1.10;99.90
2603;DHT22;1311;47.966;7.958;2023-02-05T06:48:49;1.20;99.90
2603;DHT22;1311;47.966;7.958;2023-02-05T06:51:16;1.20;99.90
2603;DHT22;1311;47.966;7.958;2023-02-05T06:53:44;1.20;99.90
2603;DHT22;1311;47.966;7.958;2023-02-05T06:56:11;1.30;99.90
2603;DHT22;1311;47.966;7.958;2023-02-05T06:58:38;1.40;99.90
2603;DHT22;1311;47.966;7.958;2023-02-05T07:01:04;1.40;99.90
2603;DHT22;1311;47.966;7.958;2023-02-05T07:03:31;1.50;99.90
2603;DHT22;1311;47.966;7.958;2023-02-05T07:06:01;1.50;99.90
2603;DHT22;1311;47.966;7.958;2023-02-05T07:08:28;1.60;99.90
2603;DHT22;1311;47.966;7.958;2023-02-05T07:10:57;1.60;99.90
2603;DHT22;1311;47.966;7.958;2023-02-05T07:13:24;1.70;99.90
2603;DHT22;1311;47.966;7.958;2023-02-05T07:15:51;1.80;99.90
2603;DHT22;1311;47.966;7.958;2023-02-05T07:18:17;1.90;99.90
2603;DHT22;1311;47.966;7.958;2023-02-05T07:20:44;1.90;99.90
2603;DHT22;1311;47.966;7.958;2023-02-05T07:23:12;1.90;99.90
2603;DHT22;1311;47.966;7.958;2023-02-05T07:25:39;2.00;99.90
2603;DHT22;1311;47.966;7.958;2023-02-05T07:28:07;2.00;99.90
2603;DHT22;1311;47.966;7.958;2023-02-05T07:30:35;2.10;99.90
2603;DHT22;1311;47.966;7.958;2023-02-05T07:33:01;2.10;99.90
2603;DHT22;1311;47.966;7.958;2023-02-05T07:35:29;2.20;99.90
2603;DHT22;1311;47.966;7.958;2023-02-05T07:37:55;2.30;99.90
2603;DHT22;1311;47.966;7.958;2023-02-05T07:40:22;2.50;99.90
2603;DHT22;1311;47.966;7.958;2023-02-05T07:42:49;2.50;99.90
2603;DHT22;1311;47.966;7.958;2023-02-05T07:45:17;2.50;99.90
2603;DHT22;1311;47.966;7.958;2023-02-05T07:47:44;2.50;99.90
2603;DHT22;1311;47.966;7.958;2023-02-05T07:50:11;2.40;99.90
2603;DHT22;1311;47.966;7.958;2023-02-05T07:52:38;2.40;99.90
2603;DHT22;1311;47.966;7.958;2023-02-05T07:55:05;2.40;99.90
2603;DHT22;1311;47.966;7.958;2023-02-05T07:57:32;2.50;99.90
2603;DHT22;1311;47.966;7.958;2023-02-05T07:59:58;2.50;99.90
2603;DHT22;1311;47.966;7.958;2023-02-05T08:02:27;2.50;99.90
2603;DHT22;1311;47.966;7.958;2023-02-05T08:04:53;2.60;99.90
2603;DHT22;1311;47.966;7.958;2023-02-05T08:07:20;2.60;99.90
2603;DHT22;1311;47.966;7.958;2023-02-05T08:09:47;2.60;99.90
2603;DHT22;1311;47.966;7.958;2023-02-05T08:12:13;2.60;99.90
2603;DHT22;1311;47.966;7.958;2023-02-05T08:14:40;2.60;99.90
2603;DHT22;1311;47.966;7.958;2023-02-05T08:17:07;2.60;99.90
2603;DHT22;1311;47.966;7.958;2023-02-05T08:19:37;2.70;99.90
2603;DHT22;1311;47.966;7.958;2023-02-05T08:22:04;2.80;99.90
2603;DHT22;1311;47.966;7.958;2023-02-05T08:24:31;2.90;99.90
2603;DHT22;1311;47.966;7.958;2023-02-05T08:26:58;3.00;99.90
2603;DHT22;1311;47.966;7.958;2023-02-05T08:29:25;3.00;99.90
2603;DHT22;1311;47.966;7.958;2023-02-05T08:31:52;3.00;99.90
2603;DHT22;1311;47.966;7.958;2023-02-05T08:34:18;3.00;99.90
2603;DHT22;1311;47.966;7.958;2023-02-05T08:36:46;3.00;99.90
2603;DHT22;1311;47.966;7.958;2023-02-05T08:39:13;3.00;99.90
2603;DHT22;1311;47.966;7.958;2023-02-05T08:41:40;3.20;99.90
2603;DHT22;1311;47.966;7.958;2023-02-05T08:44:07;3.30;99.90
2603;DHT22;1311;47.966;7.958;2023-02-05T08:46:34;3.40;99.90
2603;DHT22;1311;47.966;7.958;2023-02-05T08:49:01;3.50;99.90
2603;DHT22;1311;47.966;7.958;2023-02-05T08:51:28;3.50;99.90
2603;DHT22;1311;47.966;7.958;2023-02-05T08:53:57;3.60;99.90
2603;DHT22;1311;47.966;7.958;2023-02-05T08:56:24;3.60;99.90
2603;DHT22;1311;47.966;7.958;2023-02-05T08:58:50;3.50;99.90
2603;DHT22;1311;47.966;7.958;2023-02-05T09:01:17;3.50;99.90
2603;DHT22;1311;47.966;7.958;2023-02-05T09:03:45;3.60;99.90
2603;DHT22;1311;47.966;7.958;2023-02-05T09:06:13;3.70;99.90
2603;DHT22;1311;47.966;7.958;2023-02-05T09:08:41;3.80;99.90
2603;DHT22;1311;47.966;7.958;2023-02-05T09:11:09;3.80;99.90
2603;DHT22;1311;47.966;7.958;2023-02-05T09:13:38;3.80;99.90
2603;DHT22;1311;47.966;7.958;2023-02-05T09:16:05;3.90;99.90
2603;DHT22;1311;47.966;7.958;2023-02-05T09:18:35;4.00;99.90
2603;DHT22;1311;47.966;7.958;2023-02-05T09:21:05;4.10;99.90
2603;DHT22;1311;47.966;7.958;2023-02-05T09:23:32;4.20;99.90
2603;DHT22;1311;47.966;7.958;2023-02-05T09:25:59;4.30;99.90
2603;DHT22;1311;47.966;7.958;2023-02-05T09:28:27;4.30;99.90
2603;DHT22;1311;47.966;7.958;2023-02-05T09:30:54;4.40;99.90
2603;DHT22;1311;47.966;7.958;2023-02-05T09:33:21;4.50;99.90
2603;DHT22;1311;47.966;7.958;2023-02-05T09:35:48;4.50;99.90
2603;DHT22;1311;47.966;7.958;2023-02-05T09:38:15;4.60;99.90
2603;DHT22;1311;47.966;7.958;2023-02-05T09:40:51;4.40;99.90
2603;DHT22;1311;47.966;7.958;2023-02-05T09:43:31;4.40;99.90
2603;DHT22;1311;47.966;7.958;2023-02-05T09:46:08;4.50;99.90
2603;DHT22;1311;47.966;7.958;2023-02-05T09:48:47;4.60;99.90
2603;DHT22;1311;47.966;7.958;2023-02-05T09:51:19;4.80;99.90
2603;DHT22;1311;47.966;7.958;2023-02-05T09:53:51;4.80;99.90
2603;DHT22;1311;47.966;7.958;2023-02-05T09:56:20;4.80;99.90
2603;DHT22;1311;47.966;7.958;2023-02-05T09:58:50;4.80;99.90
2603;DHT22;1311;47.966;7.958;2023-02-05T10:01:21;4.80;99.90
2603;DHT22;1311;47.966;7.958;2023-02-05T10:03:51;4.80;99.90
2603;DHT22;1311;47.966;7.958;2023-02-05T10:09:42;5.10;99.90
2603;DHT22;1311;47.966;7.958;2023-02-05T10:12:21;5.30;99.90
2603;DHT22;1311;47.966;7.958;2023-02-05T10:15:02;5.30;99.90
2603;DHT22;1311;47.966;7.958;2023-02-05T10:17:43;5.30;99.90
2603;DHT22;1311;47.966;7.958;2023-02-05T10:20:23;5.20;99.90
2603;DHT22;1311;47.966;7.958;2023-02-05T10:23:05;5.30;99.90
2603;DHT22;1311;47.966;7.958;2023-02-05T10:25:53;5.40;99.90
2603;DHT22;1311;47.966;7.958;2023-02-05T10:28:31;5.30;99.90
2603;DHT22;1311;47.966;7.958;2023-02-05T10:31:08;5.20;99.90
2603;DHT22;1311;47.966;7.958;2023-02-05T10:33:43;5.30;99.90
2603;DHT22;1311;47.966;7.958;2023-02-05T10:36:13;5.30;99.90
2603;DHT22;1311;47.966;7.958;2023-02-05T10:38:43;5.20;99.90
2603;DHT22;1311;47.966;7.958;2023-02-05T10:41:18;5.10;99.90
2603;DHT22;1311;47.966;7.958;2023-02-05T10:43:48;5.10;99.90
2603;DHT22;1311;47.966;7.958;2023-02-05T10:46:18;5.30;99.90
2603;DHT22;1311;47.966;7.958;2023-02-05T10:48:47;5.40;99.90
2603;DHT22;1311;47.966;7.958;2023-02-05T10:51:19;5.50;99.90
2603;DHT22;1311;47.966;7.958;2023-02-05T10:53:47;5.60;99.90
2603;DHT22;1311;47.966;7.958;2023-02-05T10:56:15;5.60;99.90
2603;DHT22;1311;47.966;7.958;2023-02-05T10:58:47;5.70;99.90
2603;DHT22;1311;47.966;7.958;2023-02-05T11:01:19;5.80;99.90
2603;DHT22;1311;47.966;7.958;2023-02-05T11:03:59;5.80;99.90
2603;DHT22;1311;47.966;7.958;2023-02-05T11:06:29;5.90;99.90
2603;DHT22;1311;47.966;7.958;2023-02-05T11:08:57;5.80;99.90
2603;DHT22;1311;47.966;7.958;2023-02-05T11:11:25;5.80;99.90
2603;DHT22;1311;47.966;7.958;2023-02-05T11:13:55;5.80;99.90
2603;DHT22;1311;47.966;7.958;2023-02-05T11:16:35;5.80;99.90
2603;DHT22;1311;47.966;7.958;2023-02-05T11:19:03;5.80;99.90
2603;DHT22;1311;47.966;7.958;2023-02-05T11:21:48;5.80;99.90
2603;DHT22;1311;47.966;7.958;2023-02-05T11:24:29;5.80;99.90
2603;DHT22;1311;47.966;7.958;2023-02-05T11:27:30;5.80;99.90
2603;DHT22;1311;47.966;7.958;2023-02-05T11:29:58;5.80;99.90
2603;DHT22;1311;47.966;7.958;2023-02-05T11:32:43;5.80;99.90
2603;DHT22;1311;47.966;7.958;2023-02-05T11:35:19;5.70;99.90
2603;DHT22;1311;47.966;7.958;2023-02-05T11:37:48;5.70;99.90
2603;DHT22;1311;47.966;7.958;2023-02-05T11:40:20;5.80;99.90
2603;DHT22;1311;47.966;7.958;2023-02-05T11:42:54;5.90;99.90
2603;DHT22;1311;47.966;7.958;2023-02-05T11:45:23;6.00;99.90
2603;DHT22;1311;47.966;7.958;2023-02-05T11:47:53;5.90;99.90
2603;DHT22;1311;47.966;7.958;2023-02-05T11:50:23;5.90;99.90
2603;DHT22;1311;47.966;7.958;2023-02-05T11:52:50;5.80;99.90
2603;DHT22;1311;47.966;7.958;2023-02-05T11:55:26;5.60;99.90
2603;DHT22;1311;47.966;7.958;2023-02-05T11:57:59;5.50;99.90
2603;DHT22;1311;47.966;7.958;2023-02-05T12:00:27;5.40;99.90
2603;DHT22;1311;47.966;7.958;2023-02-05T12:03:12;5.50;99.90
2603;DHT22;1311;47.966;7.958;2023-02-05T12:05:45;5.70;99.90
2603;DHT22;1311;47.966;7.958;2023-02-05T12:08:26;5.60;99.90
2603;DHT22;1311;47.966;7.958;2023-02-05T12:11:03;5.30;99.90
2603;DHT22;1311;47.966;7.958;2023-02-05T12:13:45;5.30;99.90
2603;DHT22;1311;47.966;7.958;2023-02-05T12:16:20;5.30;99.90
2603;DHT22;1311;47.966;7.958;2023-02-05T12:18:56;5.30;99.90
2603;DHT22;1311;47.966;7.958;2023-02-05T12:21:31;5.40;99.90
2603;DHT22;1311;47.966;7.958;2023-02-05T12:24:13;5.40;99.90
2603;DHT22;1311;47.966;7.958;2023-02-05T12:26:44;5.50;99.90
2603;DHT22;1311;47.966;7.958;2023-02-05T12:29:32;5.40;99.90
2603;DHT22;1311;47.966;7.958;2023-02-05T12:32:10;5.40;99.90
2603;DHT22;1311;47.966;7.958;2023-02-05T12:34:48;5.60;99.90
2603;DHT22;1311;47.966;7.958;2023-02-05T12:37:25;5.50;99.90
2603;DHT22;1311;47.966;7.958;2023-02-05T12:39:59;5.50;99.90
2603;DHT22;1311;47.966;7.958;2023-02-05T12:42:32;5.60;99.90
2603;DHT22;1311;47.966;7.958;2023-02-05T12:45:23;5.50;99.90
2603;DHT22;1311;47.966;7.958;2023-02-05T12:48:03;5.30;99.90
2603;DHT22;1311;47.966;7.958;2023-02-05T12:51:02;5.30;99.90
2603;DHT22;1311;47.966;7.958;2023-02-05T12:53:42;5.40;99.90
2603;DHT22;1311;47.966;7.958;2023-02-05T12:56:39;5.60;99.90
2603;DHT22;1311;47.966;7.958;2023-02-05T12:59:13;5.50;99.90
2603;DHT22;1311;47.966;7.958;2023-02-05T13:01:45;5.60;99.90
2603;DHT22;1311;47.966;7.958;2023-02-05T13:04:20;5.50;99.90
2603;DHT22;1311;47.966;7.958;2023-02-05T13:06:53;5.50;99.90
2603;DHT22;1311;47.966;7.958;2023-02-05T13:09:28;5.50;99.90
2603;DHT22;1311;47.966;7.958;2023-02-05T13:11:59;5.70;99.90
2603;DHT22;1311;47.966;7.958;2023-02-05T13:14:35;5.90;99.90
2603;DHT22;1311;47.966;7.958;2023-02-05T13:17:11;5.80;99.90
2603;DHT22;1311;47.966;7.958;2023-02-05T13:19:41;5.90;99.90
2603;DHT22;1311;47.966;7.958;2023-02-05T13:22:14;5.90;99.90
2603;DHT22;1311;47.966;7.958;2023-02-05T13:25:02;5.80;99.90
2603;DHT22;1311;47.966;7.958;2023-02-05T13:27:51;5.80;99.90
2603;DHT22;1311;47.966;7.958;2023-02-05T13:30:42;5.90;99.90
2603;DHT22;1311;47.966;7.958;2023-02-05T13:33:10;5.90;99.90
2603;DHT22;1311;47.966;7.958;2023-02-05T13:35:41;5.90;99.90
2603;DHT22;1311;47.966;7.958;2023-02-05T13:38:23;5.80;99.90
2603;DHT22;1311;47.966;7.958;2023-02-05T13:41:24;5.70;99.90
2603;DHT22;1311;47.966;7.958;2023-02-05T13:44:16;5.70;99.90
2603;DHT22;1311;47.966;7.958;2023-02-05T13:47:14;5.80;99.90
2603;DHT22;1311;47.966;7.958;2023-02-05T13:53:20;6.00;99.90
2603;DHT22;1311;47.966;7.958;2023-02-05T13:56:09;5.80;99.90
2603;DHT22;1311;47.966;7.958;2023-02-05T13:58:44;5.70;99.90
2603;DHT22;1311;47.966;7.958;2023-02-05T14:01:19;5.80;99.90
2603;DHT22;1311;47.966;7.958;2023-02-05T14:03:54;5.80;99.90
2603;DHT22;1311;47.966;7.958;2023-02-05T14:06:27;5.90;99.90
2603;DHT22;1311;47.966;7.958;2023-02-05T14:09:04;5.80;99.90
2603;DHT22;1311;47.966;7.958;2023-02-05T14:11:48;5.90;99.90
2603;DHT22;1311;47.966;7.958;2023-02-05T14:14:23;5.90;99.90
2603;DHT22;1311;47.966;7.958;2023-02-05T14:16:50;5.90;99.90
2603;DHT22;1311;47.966;7.958;2023-02-05T14:19:23;5.90;99.90
2603;DHT22;1311;47.966;7.958;2023-02-05T14:22:00;5.90;99.90
2603;DHT22;1311;47.966;7.958;2023-02-05T14:24:44;5.80;99.90
2603;DHT22;1311;47.966;7.958;2023-02-05T14:27:47;5.70;99.90
2603;DHT22;1311;47.966;7.958;2023-02-05T14:30:35;5.70;99.90
2603;DHT22;1311;47.966;7.958;2023-02-05T14:33:24;5.70;99.90
2603;DHT22;1311;47.966;7.958;2023-02-05T14:35:54;5.60;99.90
2603;DHT22;1311;47.966;7.958;2023-02-05T14:38:23;5.60;99.90
2603;DHT22;1311;47.966;7.958;2023-02-05T14:41:03;5.60;99.90
2603;DHT22;1311;47.966;7.958;2023-02-05T14:43:34;5.50;99.90
2603;DHT22;1311;47.966;7.958;2023-02-05T14:46:04;5.40;99.90
2603;DHT22;1311;47.966;7.958;2023-02-05T14:48:35;5.20;99.90
2603;DHT22;1311;47.966;7.958;2023-02-05T14:51:06;5.20;99.90
2603;DHT22;1311;47.966;7.958;2023-02-05T14:53:35;5.20;99.90
2603;DHT22;1311;47.966;7.958;2023-02-05T14:56:05;5.30;99.90
2603;DHT22;1311;47.966;7.958;2023-02-05T14:58:35;5.30;99.90
2603;DHT22;1311;47.966;7.958;2023-02-05T15:04:22;5.20;99.90
2603;DHT22;1311;47.966;7.958;2023-02-05T15:06:51;5.30;99.90
2603;DHT22;1311;47.966;7.958;2023-02-05T15:09:33;5.30;99.90
2603;DHT22;1311;47.966;7.958;2023-02-05T15:12:29;5.30;99.90
2603;DHT22;1311;47.966;7.958;2023-02-05T15:14:57;5.30;99.90
2603;DHT22;1311;47.966;7.958;2023-02-05T15:17:49;5.30;99.90
2603;DHT22;1311;47.966;7.958;2023-02-05T15:20:27;5.20;99.90
2603;DHT22;1311;47.966;7.958;2023-02-05T15:23:02;5.20;99.90
2603;DHT22;1311;47.966;7.958;2023-02-05T15:25:36;5.10;99.90
2603;DHT22;1311;47.966;7.958;2023-02-05T15:28:08;5.10;99.90
2603;DHT22;1311;47.966;7.958;2023-02-05T15:30:47;5.10;99.90
2603;DHT22;1311;47.966;7.958;2023-02-05T15:33:23;5.10;99.90
2603;DHT22;1311;47.966;7.958;2023-02-05T15:35:51;5.10;99.90
2603;DHT22;1311;47.966;7.958;2023-02-05T15:38:24;5.20;99.90
2603;DHT22;1311;47.966;7.958;2023-02-05T15:40:53;5.20;99.90
2603;DHT22;1311;47.966;7.958;2023-02-05T15:43:24;5.10;99.90
2603;DHT22;1311;47.966;7.958;2023-02-05T15:45:51;5.00;99.90
2603;DHT22;1311;47.966;7.958;2023-02-05T15:48:28;5.00;99.90
2603;DHT22;1311;47.966;7.958;2023-02-05T15:50:58;5.00;99.90
2603;DHT22;1311;47.966;7.958;2023-02-05T15:53:32;5.00;99.90
2603;DHT22;1311;47.966;7.958;2023-02-05T15:56:02;4.90;99.90
2603;DHT22;1311;47.966;7.958;2023-02-05T15:58:32;4.80;99.90
2603;DHT22;1311;47.966;7.958;2023-02-05T16:00:59;4.70;99.90
2603;DHT22;1311;47.966;7.958;2023-02-05T16:03:35;4.60;99.90
2603;DHT22;1311;47.966;7.958;2023-02-05T16:06:03;4.40;99.90
2603;DHT22;1311;47.966;7.958;2023-02-05T16:08:33;4.30;99.90
2603;DHT22;1311;47.966;7.958;2023-02-05T16:11:03;4.10;99.90
2603;DHT22;1311;47.966;7.958;2023-02-05T16:13:33;4.10;99.90
2603;DHT22;1311;47.966;7.958;2023-02-05T16:16:03;4.20;99.90
2603;DHT22;1311;47.966;7.958;2023-02-05T16:18:36;4.20;99.90
2603;DHT22;1311;47.966;7.958;2023-02-05T16:21:07;4.20;99.90
2603;DHT22;1311;47.966;7.958;2023-02-05T16:23:41;4.20;99.90
2603;DHT22;1311;47.966;7.958;2023-02-05T16:26:12;4.20;99.90
2603;DHT22;1311;47.966;7.958;2023-02-05T16:28:44;4.20;99.90
2603;DHT22;1311;47.966;7.958;2023-02-05T16:31:16;4.30;99.90
2603;DHT22;1311;47.966;7.958;2023-02-05T16:33:47;4.30;99.90
2603;DHT22;1311;47.966;7.958;2023-02-05T16:36:18;4.30;99.90
2603;DHT22;1311;47.966;7.958;2023-02-05T16:38:49;4.30;99.90
2603;DHT22;1311;47.966;7.958;2023-02-05T16:41:20;4.20;99.90
2603;DHT22;1311;47.966;7.958;2023-02-05T16:43:49;4.30;99.90
2603;DHT22;1311;47.966;7.958;2023-02-05T16:46:25;4.20;99.90
2603;DHT22;1311;47.966;7.958;2023-02-05T16:48:55;4.10;99.90
2603;DHT22;1311;47.966;7.958;2023-02-05T16:51:31;3.90;99.90
2603;DHT22;1311;47.966;7.958;2023-02-05T16:53:59;4.00;99.90